createdAt,value
2018-11-13T00:02:21.968Z,20.27
2018-11-13T00:04:50.210Z,20.67
2018-11-13T00:07:18.488Z,20.83
2018-11-13T00:09:46.737Z,20.43
2018-11-13T00:12:15.006Z,21.00
2018-11-13T00:14:43.266Z,22.23
2018-11-13T00:17:12.237Z,20.57
2018-11-13T00:19:40.571Z,22.73
2018-11-13T00:22:08.815Z,22.43
2018-11-13T00:24:43.461Z,22.43
2018-11-13T00:27:11.687Z,23.43
2018-11-13T00:29:39.928Z,26.63
2018-11-13T00:32:08.168Z,30.30
2018-11-13T00:34:36.416Z,28.45
2018-11-13T00:37:04.646Z,28.03
2018-11-13T00:39:32.924Z,31.47
2018-11-13T00:42:01.176Z,34.17
2018-11-13T00:44:29.424Z,33.10
2018-11-13T00:46:57.634Z,32.43
2018-11-13T00:49:26.152Z,33.70
2018-11-13T00:51:54.522Z,34.80
2018-11-13T00:54:22.865Z,33.90
2018-11-13T00:56:51.226Z,36.63
2018-11-13T00:59:19.544Z,35.33
2018-11-13T01:01:47.842Z,35.27
2018-11-13T01:04:16.094Z,34.20
2018-11-13T01:06:44.335Z,35.60
2018-11-13T01:09:12.541Z,34.23
2018-11-13T01:11:40.801Z,33.30
2018-11-13T01:14:09.104Z,36.17
2018-11-13T01:16:38.020Z,36.20
2018-11-13T01:19:06.249Z,34.37
2018-11-13T01:21:34.495Z,35.00
2018-11-13T01:24:03.122Z,31.70
2018-11-13T01:26:31.063Z,33.10
2018-11-13T01:28:59.288Z,32.13
2018-11-13T01:31:27.579Z,33.03
2018-11-13T01:33:55.832Z,35.90
2018-11-13T01:36:24.076Z,36.50
2018-11-13T01:38:52.359Z,33.43
2018-11-13T01:41:20.631Z,36.60
2018-11-13T01:43:48.846Z,34.37
2018-11-13T01:46:17.436Z,34.17
2018-11-13T01:48:45.743Z,32.43
2018-11-13T01:51:14.021Z,34.93
2018-11-13T01:53:42.238Z,36.67
2018-11-13T01:56:10.509Z,38.53
2018-11-13T01:58:38.767Z,38.50
2018-11-13T02:01:07.036Z,35.33
2018-11-13T02:03:35.310Z,35.60
2018-11-13T02:06:03.537Z,36.57
2018-11-13T02:08:31.770Z,37.43
2018-11-13T02:11:00.026Z,35.07
2018-11-13T02:13:28.267Z,36.63
2018-11-13T02:15:57.408Z,38.67
2018-11-13T02:18:25.687Z,38.43
2018-11-13T02:20:53.907Z,39.73
2018-11-13T02:23:22.149Z,38.60
2018-11-13T02:25:50.432Z,41.17
2018-11-13T02:28:18.711Z,41.60
2018-11-13T02:30:47.011Z,38.03
2018-11-13T02:33:15.262Z,39.47
2018-11-13T02:35:43.582Z,41.73
2018-11-13T02:38:11.796Z,43.03
2018-11-13T02:40:40.017Z,39.53
2018-11-13T02:43:08.252Z,40.53
2018-11-13T02:45:36.489Z,41.07
2018-11-13T02:48:04.772Z,40.53
2018-11-13T02:50:33.024Z,42.67
2018-11-13T02:53:01.297Z,41.73
2018-11-13T02:55:29.584Z,39.00
2018-11-13T02:57:57.864Z,41.53
2018-11-13T03:00:26.117Z,42.63
2018-11-13T03:02:54.370Z,43.60
2018-11-13T03:05:22.688Z,45.03
2018-11-13T03:07:50.952Z,43.07
2018-11-13T03:10:19.891Z,43.33
2018-11-13T03:12:48.278Z,44.17
2018-11-13T03:15:17.703Z,45.60
2018-11-13T03:17:45.946Z,44.93
2018-11-13T03:20:15.920Z,45.23
2018-11-13T03:22:44.676Z,43.03
2018-11-13T03:25:17.675Z,46.37
2018-11-13T03:27:45.976Z,46.20
2018-11-13T03:30:18.332Z,45.07
2018-11-13T03:32:46.556Z,45.60
2018-11-13T03:35:14.791Z,44.97
2018-11-13T03:37:43.408Z,47.33
2018-11-13T03:40:12.433Z,46.27
2018-11-13T03:42:41.023Z,48.23
2018-11-13T03:45:10.692Z,45.63
2018-11-13T03:47:39.014Z,51.03
2018-11-13T03:50:08.940Z,48.40
2018-11-13T03:52:37.172Z,48.97
2018-11-13T03:55:06.627Z,50.50
2018-11-13T03:57:34.876Z,47.53
2018-11-13T04:00:03.148Z,53.23
2018-11-13T04:02:31.468Z,47.27
2018-11-13T04:04:59.684Z,49.43
2018-11-13T04:07:27.913Z,49.93
2018-11-13T04:09:56.135Z,48.60
2018-11-13T04:12:24.440Z,49.93
2018-11-13T04:14:52.673Z,49.55
2018-11-13T04:17:20.948Z,47.50
2018-11-13T04:19:49.193Z,51.13
2018-11-13T04:22:17.507Z,51.67
2018-11-13T04:24:45.761Z,50.13
2018-11-13T04:27:14.025Z,48.68
2018-11-13T04:29:42.272Z,48.20
2018-11-13T04:32:10.495Z,50.10
2018-11-13T04:34:38.719Z,44.37
2018-11-13T04:37:06.964Z,47.90
2018-11-13T04:39:35.212Z,50.93
2018-11-13T04:42:03.465Z,49.77
2018-11-13T04:44:31.728Z,49.40
2018-11-13T04:46:59.996Z,49.40
2018-11-13T04:49:28.225Z,46.20
2018-11-13T04:51:57.365Z,49.13
2018-11-13T04:54:25.583Z,50.37
2018-11-13T04:56:55.776Z,48.00
2018-11-13T04:59:24.022Z,46.63
2018-11-13T05:01:52.276Z,48.07
2018-11-13T05:04:20.552Z,46.37
2018-11-13T05:06:48.845Z,46.20
2018-11-13T05:09:17.136Z,47.03
2018-11-13T05:11:45.379Z,46.10
2018-11-13T05:14:13.616Z,45.83
2018-11-13T05:16:41.860Z,45.03
2018-11-13T05:19:10.112Z,43.17
2018-11-13T05:21:45.056Z,47.10
2018-11-13T05:24:13.306Z,47.00
2018-11-13T05:26:41.579Z,47.87
2018-11-13T05:29:09.821Z,42.00
2018-11-13T05:31:38.085Z,44.63
2018-11-13T05:34:06.688Z,45.37
2018-11-13T05:36:35.016Z,45.30
2018-11-13T05:39:03.484Z,46.00
2018-11-13T05:41:31.785Z,45.37
2018-11-13T05:44:00.004Z,41.93
2018-11-13T05:46:28.227Z,40.97
2018-11-13T05:48:56.525Z,42.23
2018-11-13T05:51:24.781Z,40.90
2018-11-13T05:53:53.708Z,39.80
2018-11-13T05:56:22.012Z,42.47
2018-11-13T05:58:50.382Z,41.47
2018-11-13T06:01:19.234Z,43.23
2018-11-13T06:03:47.497Z,39.73
2018-11-13T06:06:15.732Z,41.03
2018-11-13T06:08:44.137Z,42.23
2018-11-13T06:11:12.295Z,42.67
2018-11-13T06:13:40.527Z,40.63
2018-11-13T06:16:08.755Z,39.20
2018-11-13T06:18:37.004Z,41.20
2018-11-13T06:21:05.418Z,38.80
2018-11-13T06:23:33.647Z,38.20
2018-11-13T06:26:01.903Z,42.30
2018-11-13T06:28:30.112Z,38.00
2018-11-13T06:30:58.353Z,37.43
2018-11-13T06:33:26.600Z,41.73
2018-11-13T06:35:54.900Z,36.70
2018-11-13T06:38:23.196Z,39.63
2018-11-13T06:40:51.451Z,35.80
2018-11-13T06:43:19.746Z,38.73
2018-11-13T06:45:48.019Z,36.97
2018-11-13T06:48:16.252Z,35.43
2018-11-13T06:50:44.499Z,37.43
2018-11-13T06:53:12.771Z,35.57
2018-11-13T06:55:43.931Z,35.50
2018-11-13T06:58:12.203Z,34.57
2018-11-13T07:00:40.456Z,35.20
2018-11-13T07:03:08.725Z,34.17
2018-11-13T07:05:37.017Z,43.00
2018-11-13T07:08:05.355Z,34.63
2018-11-13T07:10:33.650Z,35.33
2018-11-13T07:13:01.977Z,34.33
2018-11-13T07:15:31.252Z,33.70
2018-11-13T07:18:00.793Z,33.73
2018-11-13T07:20:30.472Z,33.03
2018-11-13T07:22:58.737Z,32.87
2018-11-13T07:25:27.016Z,32.43
2018-11-13T07:27:55.678Z,31.97
2018-11-13T07:30:24.641Z,31.60
2018-11-13T07:32:52.928Z,30.13
2018-11-13T07:35:21.761Z,31.00
2018-11-13T07:37:52.608Z,29.80
2018-11-13T07:40:21.307Z,30.47
2018-11-13T07:42:49.602Z,30.03
2018-11-13T07:45:18.429Z,31.40
2018-11-13T07:47:47.995Z,30.57
2018-11-13T07:50:16.387Z,30.27
2018-11-13T07:52:44.780Z,30.13
2018-11-13T07:55:14.093Z,31.10
2018-11-13T07:57:42.352Z,30.10
2018-11-13T08:00:18.835Z,28.47
2018-11-13T08:02:48.381Z,30.03
2018-11-13T08:05:16.627Z,30.80
2018-11-13T08:07:45.615Z,29.57
2018-11-13T08:10:14.157Z,28.20
2018-11-13T08:12:42.478Z,29.00
2018-11-13T08:15:12.443Z,29.37
2018-11-13T08:17:40.728Z,30.10
2018-11-13T08:20:10.751Z,30.40
2018-11-13T08:22:39.017Z,31.67
2018-11-13T08:25:08.557Z,27.47
2018-11-13T08:27:37.256Z,29.30
2018-11-13T08:30:08.035Z,29.60
2018-11-13T08:32:37.248Z,28.73
2018-11-13T08:35:06.202Z,27.77
2018-11-13T08:37:34.435Z,28.63
2018-11-13T08:40:02.669Z,28.30
2018-11-13T08:42:30.921Z,28.60
2018-11-13T08:45:00.074Z,28.17
2018-11-13T08:47:28.320Z,26.73
2018-11-13T08:49:56.545Z,27.17
2018-11-13T08:52:24.808Z,26.83
2018-11-13T08:54:53.169Z,27.03
2018-11-13T08:57:21.475Z,27.43
2018-11-13T08:59:49.721Z,26.20
2018-11-13T09:02:18.024Z,27.27
2018-11-13T09:04:46.355Z,26.37
2018-11-13T09:07:14.606Z,26.83
2018-11-13T09:09:42.892Z,24.97
2018-11-13T09:12:11.216Z,25.00
2018-11-13T09:14:39.457Z,23.87
2018-11-13T09:17:07.691Z,25.27
2018-11-13T09:19:36.641Z,24.20
2018-11-13T09:22:05.472Z,24.53
2018-11-13T09:24:33.845Z,25.60
2018-11-13T09:27:02.073Z,27.37
2018-11-13T09:29:30.336Z,27.00
2018-11-13T09:31:58.762Z,26.77
2018-11-13T09:34:27.128Z,27.20
2018-11-13T09:36:55.430Z,27.90
2018-11-13T09:39:23.764Z,27.50
2018-11-13T09:41:51.984Z,25.93
2018-11-13T09:44:20.225Z,27.87
2018-11-13T09:46:48.487Z,26.68
2018-11-13T09:49:16.751Z,26.87
2018-11-13T09:51:44.985Z,28.20
2018-11-13T09:54:13.267Z,27.33
2018-11-13T09:56:41.597Z,26.17
2018-11-13T09:59:09.864Z,27.57
2018-11-13T10:01:38.419Z,27.30
2018-11-13T10:04:07.051Z,27.10
2018-11-13T10:06:35.472Z,26.70
2018-11-13T10:09:05.642Z,27.67
2018-11-13T10:11:33.944Z,27.60
2018-11-13T10:14:02.245Z,26.23
2018-11-13T10:16:30.472Z,26.20
2018-11-13T10:18:58.740Z,29.25
2018-11-13T10:21:27.025Z,30.33
2018-11-13T10:23:55.300Z,30.33
2018-11-13T10:26:24.494Z,31.00
2018-11-13T10:28:52.860Z,29.37
2018-11-13T10:31:21.121Z,29.40
2018-11-13T10:33:49.372Z,27.63
2018-11-13T10:36:17.638Z,28.33
2018-11-13T10:38:45.900Z,29.87
2018-11-13T10:41:14.211Z,28.00
2018-11-13T10:43:42.474Z,28.63
2018-11-13T10:46:10.720Z,29.03
2018-11-13T10:48:38.986Z,27.90
2018-11-13T10:51:07.243Z,28.37
2018-11-13T10:53:35.501Z,25.90
2018-11-13T10:56:03.731Z,25.40
2018-11-13T10:58:31.980Z,25.40
2018-11-13T11:02:03.570Z,24.77
2018-11-13T11:04:37.352Z,22.17
2018-11-13T11:07:06.300Z,22.47
2018-11-13T11:09:34.605Z,22.90
2018-11-13T11:12:02.892Z,20.75
2018-11-13T11:14:31.133Z,20.65
2018-11-13T11:16:59.404Z,19.63
2018-11-13T11:19:27.702Z,19.33
2018-11-13T11:21:55.929Z,18.27
2018-11-13T11:24:24.282Z,17.32
2018-11-13T11:26:52.612Z,17.62
2018-11-13T11:29:20.921Z,16.20
2018-11-13T11:31:49.168Z,17.75
2018-11-13T11:34:17.567Z,15.07
2018-11-13T11:36:46.044Z,15.45
2018-11-13T11:39:14.409Z,16.00
2018-11-13T11:41:42.579Z,14.23
2018-11-13T11:44:10.862Z,13.87
2018-11-13T11:46:39.432Z,14.03
2018-11-13T11:49:07.747Z,13.20
2018-11-13T11:51:36.386Z,12.87
2018-11-13T11:54:05.454Z,12.57
2018-11-13T11:56:33.897Z,13.27
2018-11-13T11:59:02.401Z,13.23
2018-11-13T12:01:30.648Z,12.23
2018-11-13T12:03:58.965Z,11.77
2018-11-13T12:06:27.234Z,11.93
2018-11-13T12:08:56.277Z,12.10
2018-11-13T12:11:24.688Z,11.40
2018-11-13T12:13:52.988Z,10.93
2018-11-13T12:16:21.264Z,11.47
2018-11-13T12:18:49.600Z,11.60
2018-11-13T12:21:17.804Z,11.03
2018-11-13T12:23:46.052Z,12.20
2018-11-13T12:26:14.617Z,12.23
2018-11-13T12:28:42.907Z,12.03
2018-11-13T12:31:11.144Z,11.73
2018-11-13T12:33:39.397Z,12.60
2018-11-13T12:36:07.699Z,12.50
2018-11-13T12:38:35.948Z,12.40
2018-11-13T12:41:04.372Z,13.50
2018-11-13T12:43:32.624Z,12.70
2018-11-13T12:46:00.920Z,12.00
2018-11-13T12:48:29.602Z,12.63
2018-11-13T12:50:57.940Z,12.53
2018-11-13T12:53:26.193Z,13.00
2018-11-13T12:55:54.568Z,12.30
2018-11-13T12:58:22.751Z,13.13
2018-11-13T13:00:50.976Z,12.07
2018-11-13T13:03:19.179Z,12.63
2018-11-13T13:05:47.404Z,12.77
2018-11-13T13:08:15.632Z,14.17
2018-11-13T13:10:43.891Z,13.33
2018-11-13T13:13:12.135Z,13.10
2018-11-13T13:15:40.377Z,13.27
2018-11-13T13:18:08.613Z,12.80
2018-11-13T13:20:36.915Z,13.53
2018-11-13T13:23:05.305Z,13.00
2018-11-13T13:25:33.636Z,14.10
2018-11-13T13:28:01.912Z,13.53
2018-11-13T13:30:30.162Z,12.87
2018-11-13T13:32:58.425Z,13.47
2018-11-13T13:35:36.530Z,12.73
2018-11-13T13:38:05.441Z,11.13
2018-11-13T13:40:33.733Z,10.73
2018-11-13T13:43:01.976Z,10.63
2018-11-13T13:45:30.236Z,11.63
2018-11-13T13:47:58.672Z,12.35
2018-11-13T13:50:26.954Z,10.83
2018-11-13T13:52:55.225Z,11.37
2018-11-13T13:55:23.521Z,10.80
2018-11-13T13:57:51.809Z,9.80
2018-11-13T14:00:20.662Z,10.80
2018-11-13T14:02:49.053Z,10.80
2018-11-13T14:05:17.504Z,10.93
2018-11-13T14:07:45.753Z,11.30
2018-11-13T14:10:14.024Z,11.40
2018-11-13T14:12:42.330Z,11.77
2018-11-13T14:15:11.866Z,11.10
2018-11-13T14:17:40.449Z,12.13
2018-11-13T14:20:14.892Z,10.72
2018-11-13T14:22:43.188Z,11.00
2018-11-13T14:25:12.273Z,10.20
2018-11-13T14:27:40.660Z,9.70
2018-11-13T14:30:20.753Z,10.37
2018-11-13T14:32:49.632Z,10.43
2018-11-13T14:35:17.994Z,10.23
2018-11-13T14:37:46.368Z,10.30
2018-11-13T14:40:22.096Z,10.13
2018-11-13T14:42:50.565Z,10.43
2018-11-13T14:45:19.737Z,9.67
2018-11-13T14:47:48.656Z,9.67
2018-11-13T14:50:18.184Z,8.87
2018-11-13T14:52:46.957Z,9.83
2018-11-13T14:55:17.637Z,9.67
2018-11-13T14:57:46.338Z,9.47
2018-11-13T15:00:17.477Z,9.20
2018-11-13T15:02:46.050Z,9.87
2018-11-13T15:05:15.563Z,10.13
2018-11-13T15:07:44.796Z,9.83
2018-11-13T15:10:15.929Z,10.13
2018-11-13T15:12:44.211Z,9.43
2018-11-13T15:15:12.820Z,10.20
2018-11-13T15:17:42.129Z,9.77
2018-11-13T15:20:12.896Z,10.37
2018-11-13T15:22:41.844Z,10.17
2018-11-13T15:25:12.188Z,10.33
2018-11-13T15:27:40.485Z,10.00
2018-11-13T15:30:11.217Z,10.43
2018-11-13T15:32:39.472Z,9.35
2018-11-13T15:35:09.655Z,11.00
2018-11-13T15:37:37.917Z,9.43
2018-11-13T15:40:12.308Z,9.30
2018-11-13T15:42:41.455Z,9.00
2018-11-13T15:45:10.383Z,9.03
2018-11-13T15:47:39.585Z,9.57
2018-11-13T15:50:10.084Z,9.50
2018-11-13T15:52:38.348Z,9.70
2018-11-13T15:55:07.398Z,9.37
2018-11-13T15:57:36.212Z,10.03
2018-11-13T16:00:05.389Z,10.17
2018-11-13T16:02:33.659Z,9.43
2018-11-13T16:05:02.838Z,9.23
2018-11-13T16:07:31.100Z,9.17
2018-11-13T16:10:00.234Z,8.87
2018-11-13T16:12:28.594Z,9.33
2018-11-13T16:14:57.092Z,7.93
2018-11-13T16:17:25.436Z,8.47
2018-11-13T16:19:53.687Z,7.40
2018-11-13T16:22:21.945Z,7.87
2018-11-13T16:24:50.216Z,7.20
2018-11-13T16:27:18.489Z,7.47
2018-11-13T16:29:46.832Z,7.77
2018-11-13T16:32:15.062Z,7.07
2018-11-13T16:34:43.377Z,7.03
2018-11-13T16:37:11.652Z,7.70
2018-11-13T16:39:39.928Z,7.63
2018-11-13T16:42:08.243Z,7.83
2018-11-13T16:44:36.513Z,6.67
2018-11-13T16:47:04.849Z,6.97
2018-11-13T16:49:33.084Z,6.63
2018-11-13T16:52:01.347Z,7.73
2018-11-13T16:54:36.052Z,8.40
2018-11-13T16:57:04.369Z,8.50
2018-11-13T16:59:33.341Z,7.67
2018-11-13T17:02:01.616Z,7.40
2018-11-13T17:04:29.911Z,7.30
2018-11-13T17:06:58.251Z,6.30
2018-11-13T17:09:26.576Z,6.50
2018-11-13T17:11:55.345Z,6.23
2018-11-13T17:14:23.595Z,5.80
2018-11-13T17:16:51.884Z,6.80
2018-11-13T17:19:20.187Z,5.93
2018-11-13T17:21:48.592Z,5.70
2018-11-13T17:24:16.837Z,4.60
2018-11-13T17:26:45.097Z,4.83
2018-11-13T17:29:13.651Z,4.60
2018-11-13T17:33:01.361Z,4.20
2018-11-13T17:35:30.309Z,3.90
2018-11-13T17:37:59.525Z,4.20
2018-11-13T17:40:30.261Z,3.77
2018-11-13T17:42:59.981Z,3.90
2018-11-13T17:45:29.596Z,3.80
2018-11-13T17:47:58.424Z,3.80
2018-11-13T17:50:29.284Z,3.67
2018-11-13T17:52:57.637Z,3.53
2018-11-13T17:55:26.217Z,3.83
2018-11-13T17:57:56.074Z,3.60
2018-11-13T18:00:29.533Z,3.20
2018-11-13T18:02:58.706Z,3.20
2018-11-13T18:05:27.586Z,3.33
2018-11-13T18:07:57.973Z,3.50
2018-11-13T18:10:27.044Z,3.63
2018-11-13T18:12:55.488Z,3.23
2018-11-13T18:15:25.079Z,3.13
2018-11-13T18:17:53.419Z,3.23
2018-11-13T18:20:24.049Z,3.63
2018-11-13T18:22:53.087Z,3.60
2018-11-13T18:25:21.824Z,3.53
2018-11-13T18:27:52.785Z,3.70
2018-11-13T18:30:22.628Z,3.20
2018-11-13T18:32:51.967Z,4.03
2018-11-13T18:35:21.420Z,3.47
2018-11-13T18:37:50.404Z,3.23
2018-11-13T18:40:20.102Z,3.43
2018-11-13T18:42:49.596Z,3.73
2018-11-13T18:45:21.104Z,3.63
2018-11-13T18:47:50.088Z,3.70
2018-11-13T18:50:23.106Z,4.33
2018-11-13T18:52:51.367Z,3.07
2018-11-13T18:55:20.437Z,3.73
2018-11-13T18:57:49.048Z,3.50
2018-11-13T19:00:21.401Z,3.30
2018-11-13T19:02:49.834Z,3.13
2018-11-13T19:05:19.637Z,2.90
2018-11-13T19:07:48.008Z,2.83
2018-11-13T19:10:26.601Z,3.07
2018-11-13T19:12:55.835Z,3.03
2018-11-13T19:15:24.380Z,3.43
2018-11-13T19:17:54.134Z,4.97
2018-11-13T19:20:24.915Z,2.70
2018-11-13T19:22:53.204Z,3.10
2018-11-13T19:25:23.673Z,3.00
2018-11-13T19:27:54.945Z,3.33
2018-11-13T19:30:23.931Z,3.57
2018-11-13T19:32:54.840Z,2.90
2018-11-13T19:35:23.951Z,3.70
2018-11-13T19:37:52.743Z,3.43
2018-11-13T19:40:23.158Z,3.27
2018-11-13T19:42:52.960Z,3.13
2018-11-13T19:45:22.477Z,3.40
2018-11-13T19:47:53.075Z,3.80
2018-11-13T19:50:25.480Z,4.63
2018-11-13T19:52:54.107Z,3.77
2018-11-13T19:55:22.960Z,3.67
2018-11-13T19:57:52.340Z,3.53
2018-11-13T20:00:22.070Z,3.33
2018-11-13T20:02:52.005Z,3.13
2018-11-13T20:05:20.570Z,3.30
2018-11-13T20:07:49.926Z,4.10
2018-11-13T20:10:20.429Z,3.40
2018-11-13T20:12:49.541Z,3.30
2018-11-13T20:15:18.155Z,4.47
2018-11-13T20:17:46.468Z,3.43
2018-11-13T20:20:19.302Z,3.47
2018-11-13T20:22:51.933Z,3.53
2018-11-13T20:25:21.961Z,3.50
2018-11-13T20:27:50.546Z,3.53
2018-11-13T20:30:23.296Z,3.70
2018-11-13T20:32:51.802Z,3.13
2018-11-13T20:35:20.155Z,3.10
2018-11-13T20:37:49.120Z,3.73
2018-11-13T20:40:19.915Z,3.50
2018-11-13T20:42:50.232Z,4.10
2018-11-13T20:45:18.624Z,3.57
2018-11-13T20:47:47.279Z,3.77
2018-11-13T20:50:17.496Z,3.10
2018-11-13T20:52:46.469Z,3.30
2018-11-13T20:55:15.101Z,3.03
2018-11-13T20:57:43.535Z,3.93
2018-11-13T21:00:16.266Z,3.70
2018-11-13T21:02:44.846Z,2.93
2018-11-13T21:05:13.416Z,4.03
2018-11-13T21:07:42.329Z,3.27
2018-11-13T21:10:14.146Z,3.37
2018-11-13T21:12:44.000Z,3.53
2018-11-13T21:15:15.995Z,3.47
2018-11-13T21:17:44.300Z,3.77
2018-11-13T21:20:15.350Z,3.53
2018-11-13T21:22:43.747Z,3.70
2018-11-13T21:25:13.393Z,2.43
2018-11-13T21:27:42.357Z,3.60
2018-11-13T21:30:14.625Z,3.30
2018-11-13T21:32:45.028Z,3.13
2018-11-13T21:35:13.738Z,2.70
2018-11-13T21:37:43.357Z,3.00
2018-11-13T21:40:13.582Z,3.53
2018-11-13T21:42:43.559Z,3.30
2018-11-13T21:45:13.354Z,2.63
2018-11-13T21:47:42.752Z,3.17
2018-11-13T21:50:13.368Z,4.00
2018-11-13T21:52:41.829Z,3.03
2018-11-13T21:55:13.399Z,3.13
2018-11-13T21:57:42.647Z,3.50
2018-11-13T22:00:14.021Z,3.67
2018-11-13T22:02:45.241Z,3.47
2018-11-13T22:05:13.713Z,3.20
2018-11-13T22:07:42.442Z,3.70
2018-11-13T22:10:11.433Z,3.47
2018-11-13T22:12:39.879Z,3.20
2018-11-13T22:15:12.306Z,3.37
2018-11-13T22:17:40.935Z,2.73
2018-11-13T22:20:11.012Z,3.37
2018-11-13T22:22:39.398Z,3.90
2018-11-13T22:25:12.597Z,3.03
2018-11-13T22:27:41.456Z,4.13
2018-11-13T22:30:11.761Z,3.93
2018-11-13T22:32:40.109Z,3.67
2018-11-13T22:35:09.894Z,3.70
2018-11-13T22:37:38.557Z,3.47
2018-11-13T22:40:11.057Z,3.90
2018-11-13T22:42:39.444Z,3.83
2018-11-13T22:45:10.871Z,3.90
2018-11-13T22:47:39.747Z,3.67
2018-11-13T22:50:10.397Z,3.33
2018-11-13T22:52:38.908Z,2.97
2018-11-13T22:55:07.784Z,3.03
2018-11-13T22:57:36.449Z,2.80
2018-11-13T23:00:11.565Z,4.10
2018-11-13T23:02:40.469Z,3.00
2018-11-13T23:05:08.832Z,3.77
2018-11-13T23:07:37.408Z,2.67
2018-11-13T23:10:08.120Z,2.90
2018-11-13T23:12:36.381Z,3.90
2018-11-13T23:15:05.742Z,3.37
2018-11-13T23:17:33.935Z,3.50
2018-11-13T23:20:02.157Z,3.20
2018-11-13T23:22:30.408Z,3.53
2018-11-13T23:24:58.704Z,3.00
2018-11-13T23:27:26.949Z,3.97
2018-11-13T23:29:55.219Z,3.53
2018-11-13T23:32:23.433Z,3.67
2018-11-13T23:34:51.891Z,4.30
2018-11-13T23:37:20.129Z,3.17
2018-11-13T23:39:48.407Z,3.70
2018-11-13T23:42:16.660Z,3.83
2018-11-13T23:44:44.925Z,3.73
2018-11-13T23:47:13.205Z,3.73
2018-11-13T23:49:41.459Z,4.03
2018-11-13T23:52:09.727Z,4.53
2018-11-13T23:54:38.012Z,4.27
2018-11-13T23:57:06.244Z,4.47
2018-11-13T23:59:34.508Z,4.40
